KCMH/CMH METAR and TAF weather

Enter ICAO airport designator
Station Type Date Time Source
KCMH METAR 2021/03/01 08:51 UTC NOAA

KCMH 010851Z 32015KT 9SM BKN018 OVC046 05/02 A2985 RMK AO2 RAB0754E09 SLP110 P0000 60002 T00500022 53020 $


Station Type Date Time Source
KCMH Decoded METAR 2021/03/01 08:51 UTC NOAA

PORT COLUMBUS INTERNATIONAL AIRPORT, OH, United States (KCMH) 40-00N 82-53W 247M
Mar 01, 2021 - 03:51 AM EST / 2021.03.01 0851 UTC
Wind: from the NW (320 degrees) at 17 MPH (15 KT):0
Visibility: 9 mile(s):0
Sky conditions: overcast
Precipitation last hour: A trace
Temperature: 41.0 F (5.0 C)
Dew Point: 36.0 F (2.2 C)
Relative Humidity: 82%
Pressure (altimeter): 29.85 in. Hg (1010 hPa)
Pressure tendency: 0.06 inches (2.0 hPa) higher than three hours ago
ob: KCMH 010851Z 32015KT 9SM BKN018 OVC046 05/02 A2985 RMK AO2 RAB0754E09 SLP110 P0000 60002 T00500022 53020
cycle: 9

Station Type Date Time Source
KCMH TAF 2021/03/01 09:36 UTC NOAA

TAF
AMD KCMH 010835Z 0109/0206 31012G18KT P6SM OVC012
FM011600 30016G26KT P6SM SCT250
FM020000 33010KT P6SM SCT250

Example: see airport list